createdAt,value
2023-07-06T00:04:25.995Z,100166.94
2023-07-06T00:09:28.156Z,100158.91
2023-07-06T00:14:30.325Z,100178.09
2023-07-06T00:19:32.453Z,100172.63
2023-07-06T00:24:34.858Z,100168.72
2023-07-06T00:29:39.910Z,100174.59
2023-07-06T00:34:45.314Z,100166.66
2023-07-06T00:39:47.497Z,100165.69
2023-07-06T00:44:53.445Z,100175.59
2023-07-06T00:49:56.198Z,100164.88
2023-07-06T00:55:01.363Z,100159.84
2023-07-06T01:00:07.847Z,100168.78
2023-07-06T01:05:12.189Z,100172.00
2023-07-06T01:10:15.061Z,100162.31
2023-07-06T01:15:17.847Z,100164.22
2023-07-06T01:20:33.024Z,100158.75
2023-07-06T01:26:06.705Z,100153.41
2023-07-06T01:31:26.963Z,100160.22
2023-07-06T01:36:54.845Z,100157.16
2023-07-06T01:42:09.119Z,100145.00
2023-07-06T01:47:11.481Z,100143.06
2023-07-06T01:52:43.124Z,100139.00
2023-07-06T01:58:11.964Z,100151.69
2023-07-06T02:03:14.803Z,100143.72
2023-07-06T02:08:18.458Z,100136.91
2023-07-06T02:13:20.620Z,100138.72
2023-07-06T02:18:22.808Z,100146.69
2023-07-06T02:23:25.388Z,100133.69
2023-07-06T02:28:28.348Z,100155.91
2023-07-06T02:33:31.555Z,100160.75
2023-07-06T02:38:35.208Z,100165.56
2023-07-06T02:43:37.509Z,100181.97
2023-07-06T02:48:41.012Z,100182.25
2023-07-06T02:53:43.306Z,100174.47
2023-07-06T02:58:45.388Z,100195.84
2023-07-06T03:03:47.516Z,100196.81
2023-07-06T03:08:49.671Z,100198.91
2023-07-06T03:13:52.476Z,100194.03
2023-07-06T03:18:54.611Z,100188.47
2023-07-06T03:23:56.709Z,100182.03
2023-07-06T03:28:58.892Z,100181.38
2023-07-06T03:34:02.046Z,100199.56
2023-07-06T03:39:04.318Z,100214.31
2023-07-06T03:44:07.206Z,100218.66
2023-07-06T03:49:11.221Z,100212.66
2023-07-06T03:54:13.922Z,100220.59
2023-07-06T03:59:16.010Z,100227.91
2023-07-06T04:04:19.389Z,100237.94
2023-07-06T04:09:21.554Z,100238.75
2023-07-06T04:14:26.479Z,100233.69
2023-07-06T04:19:29.970Z,100249.47
2023-07-06T04:24:33.035Z,100245.56
2023-07-06T04:29:35.761Z,100254.81
2023-07-06T04:34:41.205Z,100266.47
2023-07-06T04:39:43.635Z,100257.87
2023-07-06T04:44:47.122Z,100250.47
2023-07-06T04:49:49.345Z,100261.34
2023-07-06T04:54:52.095Z,100258.94
2023-07-06T04:59:54.316Z,100260.09
2023-07-06T05:04:56.532Z,100252.41
2023-07-06T05:09:58.612Z,100267.37
2023-07-06T05:15:00.792Z,100263.00
2023-07-06T05:20:03.280Z,100252.94
2023-07-06T05:25:05.964Z,100258.63
2023-07-06T05:30:08.685Z,100271.75
2023-07-06T05:35:11.313Z,100283.28
2023-07-06T05:40:13.468Z,100289.28
2023-07-06T05:45:15.692Z,100288.31
2023-07-06T05:50:17.908Z,100300.66
2023-07-06T05:55:20.031Z,100296.94
2023-07-06T06:00:22.318Z,100297.16
2023-07-06T06:05:24.408Z,100292.84
2023-07-06T06:10:26.711Z,100304.69
2023-07-06T06:15:28.913Z,100299.16
2023-07-06T06:20:38.001Z,100330.62
2023-07-06T06:25:40.225Z,100340.50
2023-07-06T06:30:43.123Z,100355.69
2023-07-06T06:35:48.302Z,100354.28
2023-07-06T06:40:50.772Z,100357.19
2023-07-06T06:45:53.242Z,100344.94
2023-07-06T06:50:57.342Z,100359.22
2023-07-06T06:55:59.439Z,100352.06
2023-07-06T07:01:03.578Z,100355.13
2023-07-06T07:06:14.238Z,100348.09
2023-07-06T07:11:24.057Z,100339.53
2023-07-06T07:16:26.962Z,100343.97
2023-07-06T07:21:30.236Z,100329.88
2023-07-06T07:26:32.430Z,100328.06
2023-07-06T07:31:34.637Z,100333.78
2023-07-06T07:36:37.604Z,100335.22
2023-07-06T07:41:44.226Z,100324.75
2023-07-06T07:46:46.501Z,100329.13
2023-07-06T07:51:48.677Z,100339.72
2023-07-06T07:56:55.286Z,100342.37
2023-07-06T08:01:57.553Z,100336.50
2023-07-06T08:06:59.761Z,100321.38
2023-07-06T08:12:04.281Z,100323.75
2023-07-06T08:17:07.034Z,100320.47
2023-07-06T08:22:10.367Z,100321.38
2023-07-06T08:27:15.040Z,100336.09
2023-07-06T08:32:20.816Z,100328.22
2023-07-06T08:37:23.225Z,100319.91
2023-07-06T08:42:26.309Z,100327.56
2023-07-06T08:47:29.627Z,100327.25
2023-07-06T08:52:32.904Z,100339.41
2023-07-06T08:57:35.057Z,100342.81
2023-07-06T09:02:38.149Z,100336.59
2023-07-06T09:07:43.685Z,100342.69
2023-07-06T09:12:46.011Z,100319.63
2023-07-06T09:17:53.601Z,100328.19
2023-07-06T09:22:55.876Z,100318.44
2023-07-06T09:27:59.556Z,100320.34
2023-07-06T09:33:08.108Z,100308.69
2023-07-06T09:38:14.930Z,100320.28
2023-07-06T09:43:22.495Z,100319.22
2023-07-06T09:48:40.420Z,100312.72
2023-07-06T09:54:00.048Z,100320.28
2023-07-06T09:59:02.192Z,100312.91
2023-07-06T10:04:25.694Z,100324.44
2023-07-06T10:09:38.764Z,100325.91
2023-07-06T10:14:45.379Z,100315.78
2023-07-06T10:20:01.889Z,100326.34
2023-07-06T10:25:15.861Z,100332.44
2023-07-06T10:30:34.976Z,100326.16
2023-07-06T10:35:46.789Z,100319.63
2023-07-06T10:41:11.352Z,100321.41
2023-07-06T10:46:38.652Z,100326.97
2023-07-06T10:52:01.527Z,100338.69
2023-07-06T10:57:11.711Z,100343.47
2023-07-06T11:02:41.791Z,100332.00
2023-07-06T11:07:51.774Z,100334.41
2023-07-06T11:13:02.962Z,100322.03
2023-07-06T11:18:20.222Z,100324.59
2023-07-06T11:23:47.327Z,100320.06
2023-07-06T11:28:50.408Z,100316.34
2023-07-06T11:34:04.836Z,100306.31
2023-07-06T11:39:23.865Z,100315.37
2023-07-06T11:44:36.485Z,100310.06
2023-07-06T11:49:44.715Z,100298.16
2023-07-06T11:54:52.921Z,100314.28
2023-07-06T12:00:22.810Z,100311.94
2023-07-06T12:05:34.802Z,100314.78
2023-07-06T12:10:40.278Z,100306.84
2023-07-06T12:15:42.494Z,100311.53
2023-07-06T12:20:44.714Z,100296.28
2023-07-06T12:25:47.268Z,100306.47
2023-07-06T12:30:50.315Z,100282.06
2023-07-06T12:35:54.585Z,100276.00
2023-07-06T12:41:20.479Z,100274.41
2023-07-06T12:46:24.158Z,100262.00
2023-07-06T12:51:26.742Z,100270.94
2023-07-06T12:56:30.432Z,100267.41
2023-07-06T13:01:44.322Z,100267.25
2023-07-06T13:06:54.153Z,100266.12
2023-07-06T13:12:01.183Z,100266.16
2023-07-06T13:17:25.579Z,100271.34
2023-07-06T13:22:28.576Z,100268.50
2023-07-06T13:27:30.689Z,100262.91
2023-07-06T13:32:35.835Z,100263.72
2023-07-06T13:37:42.180Z,100255.97
2023-07-06T13:42:47.577Z,100265.06
2023-07-06T13:47:49.872Z,100260.00
2023-07-06T13:52:56.867Z,100252.69
2023-07-06T13:57:59.415Z,100256.91
2023-07-06T14:03:01.623Z,100237.16
2023-07-06T14:08:04.052Z,100245.69
2023-07-06T14:13:08.103Z,100262.12
2023-07-06T14:18:11.446Z,100257.31
2023-07-06T14:23:16.569Z,100264.13
2023-07-06T14:28:20.431Z,100250.47
2023-07-06T14:33:25.466Z,100261.75
2023-07-06T14:38:27.849Z,100265.75
2023-07-06T14:43:34.002Z,100261.34
2023-07-06T14:48:36.302Z,100273.97
2023-07-06T14:53:40.239Z,100281.50
2023-07-06T14:58:42.574Z,100261.41
2023-07-06T15:03:45.030Z,100278.56
2023-07-06T15:08:48.186Z,100266.38
2023-07-06T15:13:50.406Z,100256.03
2023-07-06T15:18:52.634Z,100263.72
2023-07-06T15:23:55.229Z,100260.34
2023-07-06T15:28:57.393Z,100255.19
2023-07-06T15:33:59.530Z,100255.94
2023-07-06T15:39:01.824Z,100257.97
2023-07-06T15:44:04.154Z,100260.28
2023-07-06T15:49:07.659Z,100253.34
2023-07-06T15:54:11.277Z,100258.88
2023-07-06T15:59:14.517Z,100265.59
2023-07-06T16:04:17.156Z,100268.56
2023-07-06T16:09:19.318Z,100257.94
2023-07-06T16:14:23.779Z,100258.34
2023-07-06T16:19:27.059Z,100258.59
2023-07-06T16:24:29.166Z,100256.25
2023-07-06T16:29:31.341Z,100258.53
2023-07-06T16:34:33.461Z,100248.16
2023-07-06T16:39:35.842Z,100260.06
2023-07-06T16:44:37.922Z,100268.56
2023-07-06T16:49:40.101Z,100269.22
2023-07-06T16:54:42.260Z,100271.97
2023-07-06T16:59:44.342Z,100273.75
2023-07-06T17:04:46.463Z,100269.09
2023-07-06T17:09:48.616Z,100281.84
2023-07-06T17:14:50.826Z,100290.50
2023-07-06T17:19:52.989Z,100282.13
2023-07-06T17:24:55.174Z,100292.75
2023-07-06T17:29:57.560Z,100303.62
2023-07-06T17:34:59.662Z,100310.28
2023-07-06T17:40:04.353Z,100302.88
2023-07-06T17:45:07.031Z,100323.75
2023-07-06T17:50:09.483Z,100328.59
2023-07-06T17:55:11.629Z,100328.13
2023-07-06T18:00:14.315Z,100337.84
2023-07-06T18:05:17.749Z,100340.09
2023-07-06T18:10:19.900Z,100351.28
2023-07-06T18:15:22.116Z,100358.16
2023-07-06T18:20:24.325Z,100357.88
2023-07-06T18:25:27.222Z,100356.41
2023-07-06T18:30:29.426Z,100366.03
2023-07-06T18:35:32.048Z,100376.22
2023-07-06T18:40:34.193Z,100367.78
2023-07-06T18:45:42.286Z,100371.75
2023-07-06T18:50:47.393Z,100373.97
2023-07-06T18:55:50.227Z,100375.00
2023-07-06T19:00:52.703Z,100394.78
2023-07-06T19:05:54.958Z,100409.59
2023-07-06T19:10:57.214Z,100421.25
2023-07-06T19:16:00.874Z,100424.72
2023-07-06T19:21:03.016Z,100421.31
2023-07-06T19:26:05.428Z,100433.09
2023-07-06T19:31:07.673Z,100427.37
2023-07-06T19:36:09.937Z,100434.31
2023-07-06T19:41:12.100Z,100430.00
2023-07-06T19:46:20.357Z,100442.56
2023-07-06T19:51:24.612Z,100433.66
2023-07-06T19:56:29.834Z,100432.09
2023-07-06T20:01:32.900Z,100428.34
2023-07-06T20:06:35.111Z,100426.78
2023-07-06T20:11:37.344Z,100444.41
2023-07-06T20:16:39.515Z,100450.44
2023-07-06T20:21:41.693Z,100445.94
2023-07-06T20:26:45.532Z,100450.41
